Time;durP1;ratioP1;P1;durP2;ratioP2;P2;SDS_P1;SDS_P2;PMS_P1;PMS_P2;Temp;Humidity;BMP_temperature;BMP_pressure;BME280_temperature;BME280_humidity;BME280_pressure;Samples;Min_cycle;Max_cycle;Signal;HPM_P1;HPM_P2
2023/07/24 00:02:07;;;;;;;4.72;2.70;;;;;;;17.24;100.00;100362.91;5067461;28;20155;-69
2023/07/24 00:04:33;;;;;;;3.42;2.20;;;;;;;17.24;100.00;100359.31;5067376;28;20040;-69
2023/07/24 00:06:59;;;;;;;5.30;2.50;;;;;;;17.27;100.00;100362.59;5066658;28;20052;-69
2023/07/24 00:09:25;;;;;;;5.57;3.05;;;;;;;17.28;100.00;100361.56;5066423;28;20123;-67
2023/07/24 00:11:50;;;;;;;5.47;2.45;;;;;;;17.26;100.00;100360.88;5067330;28;20127;-68
2023/07/24 00:14:16;;;;;;;3.83;2.50;;;;;;;17.28;100.00;100364.31;5066876;28;20401;-69
2023/07/24 00:16:42;;;;;;;4.70;2.80;;;;;;;17.30;100.00;100358.69;5049176;28;20464;-68
2023/07/24 00:19:07;;;;;;;5.25;2.45;;;;;;;17.28;100.00;100353.31;5065720;28;20044;-68
2023/07/24 00:21:33;;;;;;;4.85;2.50;;;;;;;17.31;100.00;100350.25;5066914;28;20052;-69
2023/07/24 00:23:58;;;;;;;5.80;2.50;;;;;;;17.30;100.00;100344.94;5049559;28;20028;-69
2023/07/24 00:26:23;;;;;;;5.30;2.65;;;;;;;17.30;100.00;100345.78;5066496;28;20036;-69
2023/07/24 00:28:49;;;;;;;8.55;2.67;;;;;;;17.28;100.00;100331.31;5066135;28;20072;-68
2023/07/24 00:31:14;;;;;;;6.22;2.65;;;;;;;17.28;100.00;100331.31;5048259;28;20040;-69
2023/07/24 00:33:43;;;;;;;4.57;3.20;;;;;;;17.26;100.00;100325.16;5047601;28;20029;-69
2023/07/24 00:36:10;;;;;;;6.00;3.30;;;;;;;17.25;100.00;100326.19;5065655;28;20102;-68
2023/07/24 00:38:35;;;;;;;6.35;3.22;;;;;;;17.25;100.00;100328.94;5066195;28;20025;-70
2023/07/24 00:41:01;;;;;;;5.10;3.00;;;;;;;17.27;100.00;100326.84;5066943;28;20358;-68
2023/07/24 00:43:26;;;;;;;10.70;3.40;;;;;;;17.26;100.00;100319.66;5067124;28;20426;-68
2023/07/24 00:45:51;;;;;;;5.25;3.22;;;;;;;17.28;100.00;100316.72;5048452;28;20376;-69
2023/07/24 00:48:17;;;;;;;3.80;2.83;;;;;;;17.25;100.00;100309.69;5065311;28;20033;-69
2023/07/24 00:50:44;;;;;;;6.80;3.03;;;;;;;17.26;100.00;100310.53;5061656;28;20125;-69
2023/07/24 00:53:11;;;;;;;11.18;3.22;;;;;;;17.25;100.00;100312.44;5066159;28;20170;-69
2023/07/24 00:55:40;;;;;;;8.73;3.25;;;;;;;17.26;100.00;100308.66;5066187;28;20032;-69
2023/07/24 00:58:06;;;;;;;6.68;3.28;;;;;;;17.25;100.00;100301.44;5047355;28;20184;-69
2023/07/24 01:00:31;;;;;;;5.93;3.28;;;;;;;17.25;100.00;100301.44;5049306;28;20025;-69
2023/07/24 01:02:59;;;;;;;6.35;2.75;;;;;;;17.26;100.00;100314.16;5048710;28;20055;-69
2023/07/24 01:05:25;;;;;;;6.35;3.78;;;;;;;17.25;100.00;100298.69;5065596;28;20492;-69
2023/07/24 01:07:52;;;;;;;7.80;3.50;;;;;;;17.25;100.00;100290.44;5048200;28;20109;-69
2023/07/24 01:10:17;;;;;;;6.03;3.67;;;;;;;17.25;100.00;100287.69;5051791;28;20036;-69
2023/07/24 01:13:04;;;;;;;7.22;3.67;;;;;;;17.26;100.00;100294.03;5070071;28;20056;-69
2023/07/24 01:15:34;;;;;;;7.15;3.70;;;;;;;17.23;100.00;100278.72;5050677;28;20047;-69
2023/07/24 01:18:03;;;;;;;8.38;3.80;;;;;;;17.25;100.00;100278.56;5016588;28;20037;-69
2023/07/24 01:20:30;;;;;;;5.88;3.92;;;;;;;17.24;100.00;100285.94;5046713;28;20024;-69
2023/07/24 01:23:14;;;;;;;7.90;3.65;;;;;;;17.24;100.00;100276.84;5070195;28;20036;-69
2023/07/24 01:25:53;;;;;;;7.53;4.18;;;;;;;17.25;100.00;100279.44;5069444;28;20123;-69
2023/07/24 01:28:19;;;;;;;5.90;4.45;;;;;;;17.26;100.00;100274.78;5070105;28;20043;-69
2023/07/24 01:30:44;;;;;;;8.43;4.47;;;;;;;17.28;100.00;100275.47;5051757;28;20507;-69
2023/07/24 01:33:10;;;;;;;9.73;3.83;;;;;;;17.25;100.00;100275.81;5070176;28;20411;-69
2023/07/24 01:35:38;;;;;;;7.13;4.30;;;;;;;17.27;100.00;100271.88;5068942;28;20106;-67
2023/07/24 01:38:04;;;;;;;6.45;4.30;;;;;;;17.28;100.00;100261.72;5070355;28;20045;-70
2023/07/24 01:40:30;;;;;;;8.90;4.00;;;;;;;17.28;100.00;100270.84;5070315;28;20103;-66
2023/07/24 01:42:56;;;;;;;9.55;4.78;;;;;;;17.31;100.00;100273.25;5051608;28;20032;-66
2023/07/24 01:45:21;;;;;;;8.80;4.03;;;;;;;17.30;100.00;100266.03;5069505;28;20467;-67
2023/07/24 01:47:46;;;;;;;9.30;4.13;;;;;;;17.29;100.00;100268.94;5070136;28;20045;-67
2023/07/24 01:50:12;;;;;;;6.55;3.58;;;;;;;17.30;100.00;100257.78;5067406;28;20490;-67
2023/07/24 01:52:37;;;;;;;4.93;3.00;;;;;;;17.29;100.00;100252.44;5069549;28;20033;-67
2023/07/24 01:55:03;;;;;;;5.13;2.97;;;;;;;17.28;100.00;100243.34;5070069;28;20460;-67
2023/07/24 01:57:29;;;;;;;4.00;2.97;;;;;;;17.26;100.00;100239.06;5070557;28;20044;-67
2023/07/24 01:59:54;;;;;;;3.85;2.50;;;;;;;17.24;100.00;100238.34;5053686;28;20020;-67
2023/07/24 02:02:20;;;;;;;5.10;2.85;;;;;;;17.25;100.00;100240.94;5067717;28;20478;-67
2023/07/24 02:04:46;;;;;;;5.70;2.60;;;;;;;17.23;100.00;100229.25;5069019;28;20460;-66
2023/07/24 02:07:11;;;;;;;8.48;3.10;;;;;;;17.25;100.00;100237.31;5067712;28;20048;-66
2023/07/24 02:09:37;;;;;;;4.85;3.00;;;;;;;17.25;100.00;100231.81;5069336;28;20067;-65
2023/07/24 02:12:02;;;;;;;5.93;2.90;;;;;;;17.25;100.00;100223.56;5070490;28;20090;-65
2023/07/24 02:14:28;;;;;;;5.30;3.45;;;;;;;17.28;100.00;100223.25;5050855;28;20109;-69
2023/07/24 02:16:53;;;;;;;6.10;2.95;;;;;;;17.26;100.00;100223.41;5068414;28;20389;-66
2023/07/24 02:19:18;;;;;;;6.75;3.60;;;;;;;17.26;100.00;100212.41;5068541;28;20036;-66
2023/07/24 02:21:44;;;;;;;8.30;3.75;;;;;;;17.28;100.00;100223.25;5050586;28;20537;-65
2023/07/24 02:24:09;;;;;;;6.20;3.75;;;;;;;17.31;100.00;100222.91;5068253;28;20037;-66
2023/07/24 02:26:34;;;;;;;4.47;3.10;;;;;;;17.29;100.00;100222.19;5067543;28;20138;-66
2023/07/24 02:29:02;;;;;;;6.57;3.50;;;;;;;17.30;100.00;100229.44;5061545;28;20082;-67
2023/07/24 02:31:27;;;;;;;6.13;3.45;;;;;;;17.30;100.00;100221.19;5068851;28;20032;-67
2023/07/24 02:33:53;;;;;;;9.27;3.70;;;;;;;17.32;100.00;100219.13;5067425;28;20135;-66
2023/07/24 02:36:18;;;;;;;7.10;4.68;;;;;;;17.31;100.00;100221.00;5050064;28;20490;-66
2023/07/24 02:38:43;;;;;;;5.47;3.60;;;;;;;17.32;100.00;100211.72;5069352;28;20116;-65
2023/07/24 02:41:09;;;;;;;4.85;3.30;;;;;;;17.32;100.00;100213.63;5068509;28;20738;-66
2023/07/24 02:43:35;;;;;;;5.30;4.05;;;;;;;17.32;100.00;100224.63;5064822;28;20040;-66
2023/07/24 02:46:02;;;;;;;9.25;4.82;;;;;;;17.32;100.00;100230.13;5051149;28;20029;-66
2023/07/24 02:48:28;;;;;;;9.02;3.85;;;;;;;17.31;100.00;100228.41;5069265;28;20046;-67
2023/07/24 02:50:53;;;;;;;7.75;3.78;;;;;;;17.30;100.00;100226.69;5068016;28;20555;-67
2023/07/24 02:53:18;;;;;;;9.18;4.35;;;;;;;17.30;100.00;100222.06;5051381;28;20032;-66
2023/07/24 02:55:44;;;;;;;7.97;3.90;;;;;;;17.26;100.00;100193.19;5068296;28;20039;-67
2023/07/24 02:58:11;;;;;;;9.10;3.92;;;;;;;17.27;100.00;100205.03;5067141;28;20172;-67
2023/07/24 03:00:36;;;;;;;6.18;3.70;;;;;;;17.27;100.00;100216.88;5050527;28;20553;-67
2023/07/24 03:03:02;;;;;;;6.93;3.80;;;;;;;17.26;100.00;100219.81;5068011;28;20032;-67
2023/07/24 03:05:27;;;;;;;5.38;3.75;;;;;;;17.23;100.00;100220.13;5067677;28;20032;-66
2023/07/24 03:07:53;;;;;;;5.85;3.88;;;;;;;17.19;100.00;100205.00;5068353;28;20052;-67
2023/07/24 03:10:19;;;;;;;5.63;3.35;;;;;;;17.17;100.00;100199.69;5068130;28;20040;-66
2023/07/24 03:12:45;;;;;;;7.18;3.47;;;;;;;17.15;100.00;100192.63;5049775;28;20102;-66
2023/07/24 03:15:11;;;;;;;4.30;3.08;;;;;;;17.07;100.00;100199.00;5047226;28;20040;-67
2023/07/24 03:17:36;;;;;;;4.53;2.72;;;;;;;17.03;100.00;100198.47;5063262;28;20036;-67
2023/07/24 03:20:18;;;;;;;5.78;3.40;;;;;;;17.01;100.00;100199.66;5062534;28;20803;-67
2023/07/24 03:22:45;;;;;;;9.30;3.28;;;;;;;16.98;100.00;100211.84;5049910;28;20111;-66
2023/07/24 03:25:11;;;;;;;7.10;3.13;;;;;;;16.94;100.00;100215.97;5063892;28;20029;-66
2023/07/24 03:27:36;;;;;;;4.13;2.53;;;;;;;16.92;100.00;100200.66;5063845;28;20040;-67
2023/07/24 03:30:03;;;;;;;4.07;2.95;;;;;;;16.90;100.00;100203.59;5067869;28;20115;-66
2023/07/24 03:32:28;;;;;;;4.35;2.95;;;;;;;16.87;100.00;100197.56;5067371;28;20047;-66
2023/07/24 03:34:55;;;;;;;7.53;3.30;;;;;;;16.84;100.00;100193.28;5066486;28;20028;-66
2023/07/24 03:37:20;;;;;;;3.88;2.80;;;;;;;16.82;100.00;100198.91;5067732;28;20130;-67
2023/07/24 03:39:46;;;;;;;4.82;3.90;;;;;;;16.81;100.00;100190.84;5067313;28;20096;-66
2023/07/24 03:42:14;;;;;;;6.05;3.30;;;;;;;16.78;100.00;100178.28;5068398;28;20498;-66
2023/07/24 03:44:40;;;;;;;5.03;3.33;;;;;;;16.77;100.00;100182.06;5066919;28;20470;-69
2023/07/24 03:47:06;;;;;;;5.18;3.50;;;;;;;16.75;100.00;100183.28;5050103;28;20040;-66
2023/07/24 03:49:32;;;;;;;6.32;3.80;;;;;;;16.76;100.00;100185.00;5067084;28;20036;-67
2023/07/24 03:51:57;;;;;;;4.75;3.72;;;;;;;16.74;100.00;100189.78;5067204;28;20069;-67
2023/07/24 03:54:22;;;;;;;5.63;3.35;;;;;;;16.74;100.00;100192.53;5067724;28;20047;-67
2023/07/24 03:56:48;;;;;;;7.80;3.63;;;;;;;16.73;100.00;100188.06;5066892;28;20032;-67
2023/07/24 03:59:13;;;;;;;7.18;3.80;;;;;;;16.71;100.00;100188.22;5067186;28;20128;-68
2023/07/24 04:01:38;;;;;;;5.13;4.03;;;;;;;16.71;100.00;100195.59;5067483;28;20102;-66
2023/07/24 04:04:04;;;;;;;5.18;3.65;;;;;;;16.70;100.00;100186.50;5066817;28;20537;-67
2023/07/24 04:06:29;;;;;;;6.70;3.75;;;;;;;16.70;100.00;100193.88;5066912;28;20044;-66
2023/07/24 04:08:54;;;;;;;6.00;3.53;;;;;;;16.68;100.00;100196.78;5067873;28;20056;-66
2023/07/24 04:11:20;;;;;;;6.32;3.50;;;;;;;16.67;100.00;100200.56;5066884;28;20048;-68
2023/07/24 04:13:45;;;;;;;5.55;4.07;;;;;;;16.66;100.00;100203.47;5067074;28;20498;-67
2023/07/24 04:16:10;;;;;;;6.28;3.70;;;;;;;16.67;100.00;100208.81;5067047;28;20475;-66
2023/07/24 04:18:36;;;;;;;6.75;3.92;;;;;;;16.67;100.00;100208.81;5067644;28;20475;-65
2023/07/24 04:21:01;;;;;;;4.93;3.40;;;;;;;16.66;100.00;100203.47;5066585;28;20096;-66
2023/07/24 04:23:26;;;;;;;4.63;3.40;;;;;;;16.64;100.00;100198.13;5067029;28;20036;-66
2023/07/24 04:25:52;;;;;;;6.32;3.72;;;;;;;16.64;100.00;100203.63;5066751;28;20051;-66
2023/07/24 04:28:17;;;;;;;5.65;3.65;;;;;;;16.64;100.00;100214.63;5066156;28;20043;-67
2023/07/24 04:30:42;;;;;;;6.10;3.75;;;;;;;16.63;100.00;100206.56;5066369;28;20503;-68
2023/07/24 04:33:08;;;;;;;5.40;3.85;;;;;;;16.61;100.00;100205.88;5066134;28;20361;-67
2023/07/24 04:35:33;;;;;;;4.25;3.17;;;;;;;16.58;100.00;100209.78;5066015;28;20032;-68
2023/07/24 04:37:59;;;;;;;6.20;3.80;;;;;;;16.58;100.00;100218.88;5067241;28;20183;-66
2023/07/24 04:40:24;;;;;;;7.97;4.53;;;;;;;16.52;100.00;100211.31;5066028;28;20480;-65
2023/07/24 04:42:49;;;;;;;6.45;4.18;;;;;;;16.48;100.00;100220.06;5068607;28;20119;-66
2023/07/24 04:45:15;;;;;;;6.00;4.13;;;;;;;16.45;100.00;100217.63;5070511;28;20021;-66
2023/07/24 04:47:40;;;;;;;6.00;4.43;;;;;;;16.41;100.00;100210.75;5071330;28;20397;-66
2023/07/24 04:50:06;;;;;;;6.35;4.18;;;;;;;16.38;100.00;100200.09;5069841;28;20165;-66
2023/07/24 04:52:31;;;;;;;5.70;4.53;;;;;;;16.34;100.00;100205.06;5070182;28;20055;-66
2023/07/24 04:54:57;;;;;;;6.45;4.10;;;;;;;16.35;100.00;100204.03;5070631;28;20113;-66
2023/07/24 04:57:22;;;;;;;5.78;4.15;;;;;;;16.34;100.00;100213.28;5071183;28;20060;-66
2023/07/24 04:59:48;;;;;;;6.00;3.95;;;;;;;16.33;100.00;100220.69;5070508;28;20048;-66
2023/07/24 05:02:13;;;;;;;5.32;4.05;;;;;;;16.35;100.00;100216.91;5070641;28;20070;-67
2023/07/24 05:04:38;;;;;;;6.40;4.40;;;;;;;16.36;100.00;100210.38;5070169;28;20035;-68
2023/07/24 05:07:04;;;;;;;5.95;4.28;;;;;;;16.35;100.00;100205.91;5069644;28;20051;-67
2023/07/24 05:09:29;;;;;;;5.30;4.15;;;;;;;16.36;100.00;100204.88;5070262;28;20469;-66
2023/07/24 05:11:55;;;;;;;5.63;4.07;;;;;;;16.41;100.00;100211.59;5054766;28;20033;-67
2023/07/24 05:14:20;;;;;;;6.70;3.97;;;;;;;16.42;100.00;100213.34;5069139;28;20036;-66
2023/07/24 05:16:45;;;;;;;6.78;3.60;;;;;;;16.45;100.00;100214.88;5070234;28;20456;-67
2023/07/24 05:19:11;;;;;;;6.57;3.70;;;;;;;16.45;100.00;100223.97;5069244;28;20491;-66
2023/07/24 05:21:36;;;;;;;4.68;3.47;;;;;;;16.45;100.00;100226.72;5069147;28;20015;-66
2023/07/24 05:24:01;;;;;;;7.32;3.70;;;;;;;16.42;100.00;100226.22;5052403;28;20107;-67
2023/07/24 05:26:27;;;;;;;4.65;3.45;;;;;;;16.43;100.00;100230.66;5051607;28;20122;-66
2023/07/24 05:28:52;;;;;;;4.90;3.70;;;;;;;16.42;100.00;100228.97;5069557;28;20103;-66
2023/07/24 05:31:18;;;;;;;5.78;3.38;;;;;;;16.40;100.00;100228.25;5069510;28;20043;-66
2023/07/24 05:33:43;;;;;;;5.03;3.50;;;;;;;16.39;100.00;100227.38;5070011;28;20034;-66
2023/07/24 05:36:09;;;;;;;4.97;3.10;;;;;;;16.45;100.00;100228.59;5068415;28;20032;-66
2023/07/24 05:38:34;;;;;;;5.15;3.83;;;;;;;16.45;100.00;100218.47;5069455;28;20107;-68
2023/07/24 05:41:02;;;;;;;4.65;3.63;;;;;;;16.51;100.00;100223.34;5069508;28;20036;-68
2023/07/24 05:43:28;;;;;;;7.47;4.05;;;;;;;16.60;100.00;100227.00;5068466;28;20111;-67
2023/07/24 05:45:55;;;;;;;6.43;4.82;;;;;;;16.65;100.00;100229.25;5069165;28;20571;-67
2023/07/24 05:48:21;;;;;;;5.53;4.03;;;;;;;16.70;100.00;100233.19;5069475;28;20040;-67
2023/07/24 05:50:47;;;;;;;6.88;3.88;;;;;;;16.71;100.00;100232.16;5068181;28;20427;-67
2023/07/24 05:53:13;;;;;;;9.07;4.90;;;;;;;16.75;100.00;100233.59;5069198;28;20124;-67
2023/07/24 05:55:38;;;;;;;6.70;4.38;;;;;;;16.81;100.00;100243.91;5049822;28;20111;-68
2023/07/24 05:58:03;;;;;;;5.43;4.18;;;;;;;16.90;100.00;100243.94;5069346;28;20022;-68
2023/07/24 06:00:29;;;;;;;6.38;4.38;;;;;;;16.94;100.00;100248.94;5069391;28;20783;-67
2023/07/24 06:02:54;;;;;;;6.80;4.45;;;;;;;16.98;100.00;100247.59;5068800;28;20040;-67
2023/07/24 06:05:20;;;;;;;6.50;5.13;;;;;;;16.99;100.00;100248.44;5068086;28;20094;-67
2023/07/24 06:07:46;;;;;;;5.97;4.72;;;;;;;17.04;100.00;100248.78;5068314;28;20495;-67
2023/07/24 06:10:12;;;;;;;9.75;6.18;;;;;;;17.11;100.00;100246.22;5060893;28;20068;-66
2023/07/24 06:12:37;;;;;;;9.02;6.43;;;;;;;17.25;100.00;100251.06;5049169;28;20091;-67
2023/07/24 06:15:03;;;;;;;8.65;6.63;;;;;;;17.42;100.00;100252.81;5053514;28;20055;-67
2023/07/24 06:17:29;;;;;;;8.27;5.63;;;;;;;17.49;100.00;100256.63;5058248;28;20123;-69
2023/07/24 06:19:54;;;;;;;8.63;6.22;;;;;;;17.54;100.00;100256.09;5067819;28;20430;-66
2023/07/24 06:22:19;;;;;;;7.70;5.72;;;;;;;17.56;100.00;100260.38;5068537;28;20025;-67
2023/07/24 06:24:45;;;;;;;8.75;5.93;;;;;;;17.65;100.00;100253.00;5068778;28;20049;-67
2023/07/24 06:27:10;;;;;;;9.55;5.88;;;;;;;17.70;100.00;100264.34;5067954;28;20093;-67
2023/07/24 06:29:35;;;;;;;8.48;5.47;;;;;;;17.78;100.00;100258.03;5068478;28;20040;-66
2023/07/24 06:32:01;;;;;;;7.28;5.60;;;;;;;17.80;100.00;100248.56;5069244;28;20060;-66
2023/07/24 06:34:26;;;;;;;8.63;5.13;;;;;;;17.93;100.00;100253.53;5053782;28;20033;-67
2023/07/24 06:36:51;;;;;;;8.65;5.28;;;;;;;18.02;100.00;100252.50;5067003;28;20036;-68
2023/07/24 06:39:17;;;;;;;11.45;5.43;;;;;;;18.07;100.00;100252.84;5068561;28;20040;-68
2023/07/24 06:41:42;;;;;;;8.35;5.93;;;;;;;18.23;100.00;100260.22;5050615;28;20036;-68
2023/07/24 06:44:08;;;;;;;9.32;5.63;;;;;;;18.43;100.00;100244.16;5068569;28;20123;-68
2023/07/24 06:46:33;;;;;;;7.28;4.88;;;;;;;18.42;100.00;100266.34;5068712;28;20472;-69
2023/07/24 06:48:58;;;;;;;7.95;4.47;;;;;;;18.35;100.00;100261.56;5068984;28;20119;-68
2023/07/24 06:51:24;;;;;;;7.18;4.72;;;;;;;18.33;100.00;100260.88;5067689;28;20037;-67
2023/07/24 06:53:49;;;;;;;8.57;4.93;;;;;;;18.27;100.00;100247.81;5050821;28;20368;-67
2023/07/24 06:56:14;;;;;;;7.57;4.88;;;;;;;18.21;100.00;100250.41;5068042;28;20539;-68
2023/07/24 06:58:40;;;;;;;6.82;4.88;;;;;;;18.22;100.00;100255.72;5064600;28;20538;-67
2023/07/24 07:01:08;;;;;;;6.70;5.18;;;;;;;18.21;100.00;100253.16;5051344;28;20059;-67
2023/07/24 07:03:36;;;;;;;8.80;5.05;;;;;;;18.11;100.00;100250.59;5055204;28;20429;-68
2023/07/24 07:06:02;;;;;;;9.63;5.32;;;;;;;17.99;100.00;100247.34;5066813;28;20057;-66
2023/07/24 07:08:29;;;;;;;7.30;5.07;;;;;;;17.97;100.00;100240.31;5068084;28;20485;-68
2023/07/24 07:11:00;;;;;;;8.95;5.45;;;;;;;17.90;100.00;100242.88;5067752;28;20044;-66
2023/07/24 07:13:26;;;;;;;9.23;5.85;;;;;;;17.93;100.00;100245.28;5051173;28;20160;-66
2023/07/24 07:15:51;;;;;;;8.05;5.35;;;;;;;17.93;100.00;100255.44;5068343;28;20491;-67
2023/07/24 07:18:17;;;;;;;7.53;5.18;;;;;;;17.96;100.00;100257.84;5068537;28;20040;-67
2023/07/24 07:20:47;;;;;;;8.27;5.40;;;;;;;17.93;100.00;100244.44;5067338;28;20089;-67
2023/07/24 07:23:12;;;;;;;8.52;4.90;;;;;;;17.89;100.00;100249.41;5050345;28;20036;-67
2023/07/24 07:25:37;;;;;;;7.78;5.45;;;;;;;17.84;100.00;100246.31;5062877;28;20530;-67
2023/07/24 07:28:03;;;;;;;7.75;5.25;;;;;;;17.80;100.00;100250.44;5060265;28;20032;-67
2023/07/24 07:30:28;;;;;;;8.18;5.55;;;;;;;17.85;100.00;100248.03;5050152;28;20068;-67
2023/07/24 07:32:54;;;;;;;10.07;5.32;;;;;;;17.82;100.00;100248.41;5067652;28;20041;-67
2023/07/24 07:35:19;;;;;;;9.25;5.13;;;;;;;17.84;100.00;100252.69;5048661;28;20040;-68
2023/07/24 07:37:44;;;;;;;7.07;5.20;;;;;;;17.88;100.00;100250.47;5066444;28;20102;-67
2023/07/24 07:40:10;;;;;;;6.10;4.55;;;;;;;18.01;100.00;100252.69;5067101;28;20029;-66
2023/07/24 07:42:35;;;;;;;5.85;4.15;;;;;;;18.06;100.00;100253.88;5067438;28;20036;-68
2023/07/24 07:45:01;;;;;;;6.05;3.50;;;;;;;18.18;99.34;100251.59;5066847;28;20522;-67
2023/07/24 07:47:26;;;;;;;4.28;3.45;;;;;;;18.28;98.74;100249.53;5067431;28;20105;-66
2023/07/24 07:49:51;;;;;;;6.10;3.92;;;;;;;18.38;98.69;100238.31;5064334;28;20037;-66
2023/07/24 07:52:17;;;;;;;5.03;3.92;;;;;;;18.49;99.24;100235.19;5055799;28;20116;-67
2023/07/24 07:54:49;;;;;;;5.68;3.85;;;;;;;18.70;98.72;100242.00;5066933;28;20562;-68
2023/07/24 07:57:15;;;;;;;5.32;3.47;;;;;;;18.84;96.83;100242.16;5067598;28;20036;-68
2023/07/24 07:59:40;;;;;;;5.18;3.60;;;;;;;18.87;96.98;100240.91;5063873;28;20040;-67
2023/07/24 08:02:06;;;;;;;6.57;3.65;;;;;;;18.81;96.55;100244.41;5067265;28;20059;-68
2023/07/24 08:04:32;;;;;;;5.65;3.60;;;;;;;18.82;95.22;100249.72;5066654;28;20028;-69
2023/07/24 08:06:57;;;;;;;4.78;3.42;;;;;;;18.87;94.68;100240.91;5046398;28;20441;-68
2023/07/24 08:09:24;;;;;;;6.35;3.88;;;;;;;18.85;95.02;100241.09;5055796;28;20880;-68
2023/07/24 08:11:49;;;;;;;6.18;3.83;;;;;;;18.94;94.99;100246.59;5047204;28;20044;-68
2023/07/24 08:14:15;;;;;;;7.60;3.85;;;;;;;19.13;96.51;100254.41;5065148;28;20043;-67
2023/07/24 08:16:40;;;;;;;7.03;4.00;;;;;;;19.34;94.14;100251.84;5065907;28;20029;-68
2023/07/24 08:19:05;;;;;;;4.65;3.63;;;;;;;19.53;94.51;100255.16;5066055;28;20036;-69
2023/07/24 08:21:31;;;;;;;5.95;4.50;;;;;;;19.51;93.80;100247.06;5066542;28;20486;-68
2023/07/24 08:23:57;;;;;;;8.07;4.93;;;;;;;19.60;93.28;100248.75;5066913;28;20016;-67
2023/07/24 08:26:24;;;;;;;6.93;5.18;;;;;;;19.91;91.47;100236.78;5066031;28;20044;-68
2023/07/24 08:28:49;;;;;;;8.60;5.80;;;;;;;20.16;90.48;100231.00;5066188;28;20028;-68
2023/07/24 08:31:15;;;;;;;8.35;6.22;;;;;;;20.48;93.69;100230.69;5066260;28;20078;-68
2023/07/24 08:33:40;;;;;;;8.07;5.57;;;;;;;20.55;89.62;100241.81;5067042;28;20050;-69
2023/07/24 08:36:08;;;;;;;11.05;6.10;;;;;;;20.42;86.30;100244.34;5065243;28;20086;-68
2023/07/24 08:38:36;;;;;;;7.10;6.18;;;;;;;20.17;85.05;100236.34;5067643;28;20466;-69
2023/07/24 08:41:09;;;;;;;6.28;5.63;;;;;;;20.11;88.28;100237.94;5065919;28;20017;-69
2023/07/24 08:43:36;;;;;;;10.75;5.95;;;;;;;20.11;86.88;100239.84;5065908;28;20036;-69
2023/07/24 08:46:03;;;;;;;7.70;5.72;;;;;;;20.06;88.00;100239.56;5067179;28;20029;-68
2023/07/24 08:48:31;;;;;;;8.20;5.43;;;;;;;20.03;87.73;100234.41;5066037;28;20098;-69
2023/07/24 08:50:58;;;;;;;9.10;5.13;;;;;;;19.99;88.55;100235.81;5062449;28;20075;-68
2023/07/24 08:53:24;;;;;;;9.00;6.03;;;;;;;19.95;89.54;100240.84;5066754;28;20489;-68
2023/07/24 08:55:52;;;;;;;7.40;5.70;;;;;;;19.98;89.22;100237.72;5066216;28;20494;-68
2023/07/24 08:58:17;;;;;;;10.07;6.22;;;;;;;20.01;89.78;100236.50;5049669;28;20043;-68
2023/07/24 09:00:43;;;;;;;7.95;5.88;;;;;;;20.10;89.00;100233.47;5055325;28;20032;-68
2023/07/24 09:03:08;;;;;;;10.13;6.18;;;;;;;20.36;91.11;100223.88;5065175;28;20036;-68
2023/07/24 09:05:34;;;;;;;7.60;6.30;;;;;;;20.42;89.55;100225.00;5055479;28;20085;-70
2023/07/24 09:07:59;;;;;;;8.85;6.18;;;;;;;20.62;87.17;100234.50;5055221;28;20437;-68
2023/07/24 09:10:25;;;;;;;7.43;6.35;;;;;;;20.83;87.61;100219.88;5066376;28;20033;-68
2023/07/24 09:12:51;;;;;;;11.80;6.32;;;;;;;20.91;88.30;100208.69;5066440;28;20097;-69
2023/07/24 09:15:16;;;;;;;7.00;5.45;;;;;;;20.85;86.70;100202.03;5066683;28;20040;-68
2023/07/24 09:17:52;;;;;;;8.23;5.72;;;;;;;20.81;87.20;100200.72;5062969;28;20072;-68
2023/07/24 09:20:19;;;;;;;8.68;6.00;;;;;;;21.08;89.05;100199.13;5058945;28;20551;-68
2023/07/24 09:22:52;;;;;;;7.13;5.75;;;;;;;21.39;87.92;100184.16;5066480;28;20066;-69
2023/07/24 09:25:18;;;;;;;9.50;6.22;;;;;;;21.63;84.53;100192.03;5066507;28;20055;-69
2023/07/24 09:27:44;;;;;;;7.85;6.10;;;;;;;21.59;83.40;100201.81;5066037;28;20464;-68
2023/07/24 09:30:14;;;;;;;7.07;5.25;;;;;;;21.50;86.25;100194.72;5068115;28;20046;-67
2023/07/24 09:32:40;;;;;;;7.55;4.43;;;;;;;21.32;82.71;100186.88;5070008;28;20079;-68
2023/07/24 09:35:16;;;;;;;7.70;5.40;;;;;;;21.28;85.50;100184.66;5069416;28;20478;-69
2023/07/24 09:37:42;;;;;;;8.65;4.72;;;;;;;21.02;84.84;100191.59;5068087;28;20040;-68
2023/07/24 09:40:10;;;;;;;7.03;4.88;;;;;;;20.95;85.76;100182.38;5050655;28;20037;-68
2023/07/24 09:42:36;;;;;;;5.78;4.93;;;;;;;20.93;86.04;100181.69;5057324;28;20025;-68
2023/07/24 09:45:08;;;;;;;7.00;5.13;;;;;;;20.86;84.54;100173.34;5069007;28;20082;-68
2023/07/24 09:47:34;;;;;;;8.00;5.00;;;;;;;20.74;85.35;100154.69;5070465;28;20041;-68
2023/07/24 09:50:02;;;;;;;4.53;3.65;;;;;;;20.68;84.14;100149.94;5069628;28;20024;-67
2023/07/24 09:52:30;;;;;;;4.78;3.90;;;;;;;20.81;86.39;100148.19;5069499;28;20052;-68
2023/07/24 09:55:32;;;;;;;5.10;4.00;;;;;;;20.98;86.02;100153.47;5068904;28;20031;-68
2023/07/24 09:58:00;;;;;;;4.40;3.40;;;;;;;20.88;81.72;100153.78;5062305;28;20504;-67
2023/07/24 10:00:25;;;;;;;4.50;3.10;;;;;;;20.77;81.83;100152.38;5069186;28;20035;-68
2023/07/24 10:02:51;;;;;;;4.15;3.30;;;;;;;20.74;84.04;100143.63;5051382;28;20044;-68
2023/07/24 10:05:17;;;;;;;5.55;3.17;;;;;;;20.56;82.85;100138.50;5068280;28;20048;-67
2023/07/24 10:07:43;;;;;;;4.63;3.58;;;;;;;20.52;84.60;100137.19;5068972;28;20068;-67
2023/07/24 10:10:09;;;;;;;4.70;3.22;;;;;;;20.36;82.56;100149.28;5068864;28;20029;-68
2023/07/24 10:12:36;;;;;;;5.03;3.72;;;;;;;20.17;83.66;100158.13;5069438;28;20076;-68
2023/07/24 10:15:02;;;;;;;4.45;3.40;;;;;;;19.99;84.07;100161.28;5069700;28;20511;-67
2023/07/24 10:17:41;;;;;;;5.35;3.40;;;;;;;19.92;84.99;100168.59;5069512;28;20077;-67
2023/07/24 10:20:12;;;;;;;3.80;3.17;;;;;;;19.83;84.38;100159.53;5067812;28;20500;-68
2023/07/24 10:22:41;;;;;;;4.80;3.70;;;;;;;19.74;85.42;100166.19;5067703;28;20042;-68
2023/07/24 10:25:08;;;;;;;6.13;3.38;;;;;;;19.63;85.48;100173.00;5068859;28;20112;-68
2023/07/24 10:27:44;;;;;;;7.18;3.92;;;;;;;19.53;86.52;100175.13;5069398;28;20080;-69
2023/07/24 10:30:09;;;;;;;4.38;3.53;;;;;;;19.49;87.05;100180.19;5068987;28;20036;-68
2023/07/24 10:32:45;;;;;;;5.05;3.50;;;;;;;19.42;87.09;100186.63;5068902;28;20039;-67
2023/07/24 10:35:10;;;;;;;4.60;3.65;;;;;;;19.34;86.66;100184.78;5068165;28;20096;-66
2023/07/24 10:37:37;;;;;;;4.68;3.78;;;;;;;19.28;87.41;100180.00;5068693;28;20028;-66
2023/07/24 10:40:04;;;;;;;6.05;3.85;;;;;;;19.22;88.21;100178.00;5069191;28;20558;-68
2023/07/24 10:42:30;;;;;;;5.15;3.45;;;;;;;19.37;89.34;100167.88;5069123;28;20436;-67
2023/07/24 10:45:06;;;;;;;4.57;3.75;;;;;;;19.46;88.54;100160.38;5068475;28;20119;-67
2023/07/24 10:47:32;;;;;;;5.35;3.83;;;;;;;19.69;89.27;100174.19;5069419;28;20058;-68
2023/07/24 10:49:57;;;;;;;5.75;3.90;;;;;;;19.91;88.13;100189.84;5068064;28;20468;-67
2023/07/24 10:52:33;;;;;;;5.22;4.10;;;;;;;20.02;88.22;100194.91;5050571;28;20510;-67
2023/07/24 10:55:02;;;;;;;5.75;4.15;;;;;;;20.15;86.53;100199.78;5067349;28;20430;-67
2023/07/24 10:57:31;;;;;;;5.38;4.68;;;;;;;20.24;87.76;100197.78;5068154;28;20442;-68
2023/07/24 10:59:56;;;;;;;7.40;4.93;;;;;;;20.32;87.84;100192.13;5050473;28;20024;-67
2023/07/24 11:02:23;;;;;;;6.13;5.15;;;;;;;20.30;84.38;100194.25;5068710;28;20043;-67
2023/07/24 11:04:48;;;;;;;6.80;5.28;;;;;;;20.19;83.76;100195.59;5067216;28;20124;-68
2023/07/24 11:07:14;;;;;;;6.13;5.03;;;;;;;20.28;86.82;100188.91;5068102;28;20131;-68
2023/07/24 11:09:40;;;;;;;5.97;4.60;;;;;;;20.26;85.60;100193.75;5056048;28;20480;-68
2023/07/24 11:12:13;;;;;;;6.22;4.95;;;;;;;20.27;85.21;100189.09;5042547;28;20731;-67
2023/07/24 11:14:55;;;;;;;6.57;4.97;;;;;;;20.41;86.79;100190.13;5056909;28;20044;-66
2023/07/24 11:17:21;;;;;;;5.43;4.83;;;;;;;20.56;84.73;100199.31;5068263;28;20028;-66